Airfield :
LOGIN :

Register | Disclaimer

   EN    FR    IT 

 










Legend :    VFR   Marginal VFR   IFR   Intensive IFR   Very Intensive IFR
Visi :
Ceiling :
>= 8 km
>= 3000ft
5 to 8 km
1000 to 3000 ft
1500m to 5 km
500 to 1000 ft
800 to 1500m
200 to 500 ft
< 800m
< 200 ft
Symbols :   Thunderstorms  Fog  Heavy snow  Heavy precipitations  Wind > 20 kt
SIGMETs :     Misc.  Thunderstorms  Icing  Turbulence  Mountain Waves  Volcanic Ashes






- Airport Elevation : 373 ft
- IATA code : OZH


UKDE - Mokraya

CURRENT METAR :
  • 272300Z 18006MPS 8000 BKN006 BKN015CB 08/08 Q0997 R20L/290550 NOSIG

EXPIRED METARs :
  • 272200Z 19006MPS 2900 -SHRA BKN003 BKN015CB 08/07 Q0998 R20L/290550 NOSIG
  • 272130Z 19005MPS 160V220 3400 -SHRA BKN004 BKN020CB 08/07 Q0998 R20L/290550 NOSIG
  • 272100Z 18005MPS 4100 -SHRA BKN005 BKN020CB 08/07 Q0998 R20L/290054 NOSIG

TAF TAF UKDE
Valid from the 28 at 00:00 until the 28 at 09:00 UTC


272312Z 2800/2809 18005MPS 3100 -SHRA BR BKN005 BKN015CB TX08/2724Z TN05/2803Z
TEMPO 2800/2803 20007G12MPS 1000 SHRA BR BKN003 BKN013CB
BECMG 2803/2805 27007MPS
TEMPO 2805/2809 30010G15MPS



MET'MAP, your aeronautical weather chart ! - Copyright ORBIFLY December 2007 - Disclaimer

ORBIFLY MET'MAP TEAM :

Programming & Development : Alexandra Zaïnal
Concept & original design : Baudouin d'Aumeries
Assistance for programming : Marc-Olivier Méhu
Technical & hardware support : Manuel Goepfert

Contact : metmap@orbifly.com




SOURCES & CREDITS :

   NOAA